sensor_id;sensor_type;location;lat;lon;timestamp;temperature;humidity
46754;DHT22;32500;50.620;3.400;2023-02-28T00:00:20;11.60;60.50
46754;DHT22;32500;50.620;3.400;2023-02-28T00:02:46;11.60;60.50
46754;DHT22;32500;50.620;3.400;2023-02-28T00:05:14;11.60;60.40
46754;DHT22;32500;50.620;3.400;2023-02-28T00:07:40;11.60;60.60
46754;DHT22;32500;50.620;3.400;2023-02-28T00:10:12;11.60;60.70
46754;DHT22;32500;50.620;3.400;2023-02-28T00:12:38;11.60;60.70
46754;DHT22;32500;50.620;3.400;2023-02-28T00:15:10;11.50;60.60
46754;DHT22;32500;50.620;3.400;2023-02-28T00:17:37;11.60;60.70
46754;DHT22;32500;50.620;3.400;2023-02-28T00:20:04;11.50;60.40
46754;DHT22;32500;50.620;3.400;2023-02-28T00:22:33;11.60;60.60
46754;DHT22;32500;50.620;3.400;2023-02-28T00:24:59;11.50;60.50
46754;DHT22;32500;50.620;3.400;2023-02-28T00:27:25;11.50;60.50
46754;DHT22;32500;50.620;3.400;2023-02-28T00:29:50;11.50;60.60
46754;DHT22;32500;50.620;3.400;2023-02-28T00:32:16;11.50;60.60
46754;DHT22;32500;50.620;3.400;2023-02-28T00:34:43;11.50;60.70
46754;DHT22;32500;50.620;3.400;2023-02-28T00:37:09;11.50;60.70
46754;DHT22;32500;50.620;3.400;2023-02-28T00:39:38;11.50;60.70
46754;DHT22;32500;50.620;3.400;2023-02-28T00:42:04;11.50;60.90
46754;DHT22;32500;50.620;3.400;2023-02-28T00:44:31;11.40;60.80
46754;DHT22;32500;50.620;3.400;2023-02-28T00:46:58;11.50;60.80
46754;DHT22;32500;50.620;3.400;2023-02-28T00:49:25;11.50;60.60
46754;DHT22;32500;50.620;3.400;2023-02-28T00:51:52;11.50;60.80
46754;DHT22;32500;50.620;3.400;2023-02-28T00:54:18;11.50;60.60
46754;DHT22;32500;50.620;3.400;2023-02-28T00:56:44;11.50;60.60
46754;DHT22;32500;50.620;3.400;2023-02-28T00:59:12;11.50;60.70
46754;DHT22;32500;50.620;3.400;2023-02-28T01:01:38;11.40;60.50
46754;DHT22;32500;50.620;3.400;2023-02-28T01:04:04;11.40;60.50
46754;DHT22;32500;50.620;3.400;2023-02-28T01:06:30;11.40;60.70
46754;DHT22;32500;50.620;3.400;2023-02-28T01:08:57;11.40;60.60
46754;DHT22;32500;50.620;3.400;2023-02-28T01:11:22;11.40;60.60
46754;DHT22;32500;50.620;3.400;2023-02-28T01:13:48;11.50;60.60
46754;DHT22;32500;50.620;3.400;2023-02-28T01:16:14;11.40;60.50
46754;DHT22;32500;50.620;3.400;2023-02-28T01:18:40;11.40;60.50
46754;DHT22;32500;50.620;3.400;2023-02-28T01:21:11;11.50;60.60
46754;DHT22;32500;50.620;3.400;2023-02-28T01:23:38;11.40;60.50
46754;DHT22;32500;50.620;3.400;2023-02-28T01:26:06;11.40;60.60
46754;DHT22;32500;50.620;3.400;2023-02-28T01:28:31;11.40;60.60
46754;DHT22;32500;50.620;3.400;2023-02-28T01:30:57;11.40;60.60
46754;DHT22;32500;50.620;3.400;2023-02-28T01:33:23;11.40;60.40
46754;DHT22;32500;50.620;3.400;2023-02-28T01:35:48;11.40;60.60
46754;DHT22;32500;50.620;3.400;2023-02-28T01:38:14;11.40;60.60
46754;DHT22;32500;50.620;3.400;2023-02-28T01:40:40;11.40;60.50
46754;DHT22;32500;50.620;3.400;2023-02-28T01:43:26;11.40;60.50
46754;DHT22;32500;50.620;3.400;2023-02-28T01:45:54;11.40;60.60
46754;DHT22;32500;50.620;3.400;2023-02-28T01:48:24;11.30;60.90
46754;DHT22;32500;50.620;3.400;2023-02-28T01:50:52;11.40;60.70
46754;DHT22;32500;50.620;3.400;2023-02-28T01:53:21;11.40;60.50
46754;DHT22;32500;50.620;3.400;2023-02-28T01:55:49;11.30;60.80
46754;DHT22;32500;50.620;3.400;2023-02-28T01:58:17;11.30;60.60
46754;DHT22;32500;50.620;3.400;2023-02-28T02:00:43;11.30;60.80
46754;DHT22;32500;50.620;3.400;2023-02-28T02:03:12;11.30;60.90
46754;DHT22;32500;50.620;3.400;2023-02-28T02:05:40;11.30;60.80
46754;DHT22;32500;50.620;3.400;2023-02-28T02:08:09;11.30;60.60
46754;DHT22;32500;50.620;3.400;2023-02-28T02:10:53;11.30;60.60
46754;DHT22;32500;50.620;3.400;2023-02-28T02:16:23;11.30;60.70
46754;DHT22;32500;50.620;3.400;2023-02-28T02:28:09;11.20;60.50
46754;DHT22;32500;50.620;3.400;2023-02-28T02:33:23;11.20;60.60
46754;DHT22;32500;50.620;3.400;2023-02-28T02:41:14;11.20;60.60
46754;DHT22;32500;50.620;3.400;2023-02-28T02:43:52;11.20;60.70
46754;DHT22;32500;50.620;3.400;2023-02-28T02:46:29;11.20;60.70
46754;DHT22;32500;50.620;3.400;2023-02-28T02:49:00;11.20;60.60
46754;DHT22;32500;50.620;3.400;2023-02-28T02:51:26;11.20;60.70
46754;DHT22;32500;50.620;3.400;2023-02-28T02:54:08;11.20;60.70
46754;DHT22;32500;50.620;3.400;2023-02-28T02:56:39;11.20;60.70
46754;DHT22;32500;50.620;3.400;2023-02-28T02:59:09;11.20;60.60
46754;DHT22;32500;50.620;3.400;2023-02-28T03:01:37;11.20;60.60
46754;DHT22;32500;50.620;3.400;2023-02-28T03:04:07;11.30;60.70
46754;DHT22;32500;50.620;3.400;2023-02-28T03:06:33;11.20;60.70
46754;DHT22;32500;50.620;3.400;2023-02-28T03:09:01;11.20;60.60
46754;DHT22;32500;50.620;3.400;2023-02-28T03:11:27;11.20;60.60
46754;DHT22;32500;50.620;3.400;2023-02-28T03:19:40;11.20;60.70
46754;DHT22;32500;50.620;3.400;2023-02-28T03:25:07;11.10;60.70
46754;DHT22;32500;50.620;3.400;2023-02-28T03:30:46;11.20;60.70
46754;DHT22;32500;50.620;3.400;2023-02-28T03:33:27;11.10;60.80
46754;DHT22;32500;50.620;3.400;2023-02-28T03:36:04;11.10;60.60
46754;DHT22;32500;50.620;3.400;2023-02-28T03:39:00;11.10;60.80
46754;DHT22;32500;50.620;3.400;2023-02-28T03:41:45;11.10;60.80
46754;DHT22;32500;50.620;3.400;2023-02-28T03:44:25;11.10;60.70
46754;DHT22;32500;50.620;3.400;2023-02-28T03:47:07;11.20;60.70
46754;DHT22;32500;50.620;3.400;2023-02-28T03:49:46;11.20;60.70
46754;DHT22;32500;50.620;3.400;2023-02-28T03:52:14;11.20;60.50
46754;DHT22;32500;50.620;3.400;2023-02-28T03:54:45;11.20;60.60
46754;DHT22;32500;50.620;3.400;2023-02-28T04:00:06;11.20;60.40
46754;DHT22;32500;50.620;3.400;2023-02-28T04:02:34;11.30;60.50
46754;DHT22;32500;50.620;3.400;2023-02-28T04:05:00;11.20;60.30
46754;DHT22;32500;50.620;3.400;2023-02-28T04:07:29;11.30;61.20
46754;DHT22;32500;50.620;3.400;2023-02-28T04:09:56;11.30;60.20
46754;DHT22;32500;50.620;3.400;2023-02-28T04:12:22;11.30;60.30
46754;DHT22;32500;50.620;3.400;2023-02-28T04:14:49;11.20;60.20
46754;DHT22;32500;50.620;3.400;2023-02-28T04:17:15;11.30;60.20
46754;DHT22;32500;50.620;3.400;2023-02-28T04:19:41;11.20;60.20
46754;DHT22;32500;50.620;3.400;2023-02-28T04:22:08;11.20;60.10
46754;DHT22;32500;50.620;3.400;2023-02-28T04:24:34;11.20;60.10
46754;DHT22;32500;50.620;3.400;2023-02-28T04:27:00;11.30;60.10
46754;DHT22;32500;50.620;3.400;2023-02-28T04:29:28;11.20;59.90
46754;DHT22;32500;50.620;3.400;2023-02-28T04:31:55;11.20;60.10
46754;DHT22;32500;50.620;3.400;2023-02-28T04:34:23;11.20;60.00
46754;DHT22;32500;50.620;3.400;2023-02-28T04:36:50;11.20;60.40
46754;DHT22;32500;50.620;3.400;2023-02-28T04:39:18;11.20;60.30
46754;DHT22;32500;50.620;3.400;2023-02-28T04:41:45;11.20;60.20
46754;DHT22;32500;50.620;3.400;2023-02-28T04:44:11;11.20;60.40
46754;DHT22;32500;50.620;3.400;2023-02-28T04:46:36;11.20;60.30
46754;DHT22;32500;50.620;3.400;2023-02-28T04:49:02;11.10;60.30
46754;DHT22;32500;50.620;3.400;2023-02-28T04:51:28;11.10;60.20
46754;DHT22;32500;50.620;3.400;2023-02-28T04:53:55;11.10;60.20
46754;DHT22;32500;50.620;3.400;2023-02-28T04:56:21;11.10;60.40
46754;DHT22;32500;50.620;3.400;2023-02-28T04:58:47;11.10;60.40
46754;DHT22;32500;50.620;3.400;2023-02-28T05:01:32;11.10;60.50
46754;DHT22;32500;50.620;3.400;2023-02-28T05:03:59;11.10;60.30
46754;DHT22;32500;50.620;3.400;2023-02-28T05:06:27;11.10;60.50
46754;DHT22;32500;50.620;3.400;2023-02-28T05:08:53;11.10;60.50
46754;DHT22;32500;50.620;3.400;2023-02-28T05:11:22;11.10;61.20
46754;DHT22;32500;50.620;3.400;2023-02-28T05:13:49;11.10;60.30
46754;DHT22;32500;50.620;3.400;2023-02-28T05:16:15;11.10;60.30
46754;DHT22;32500;50.620;3.400;2023-02-28T05:18:41;11.10;60.30
46754;DHT22;32500;50.620;3.400;2023-02-28T05:21:23;11.10;60.30
46754;DHT22;32500;50.620;3.400;2023-02-28T05:23:49;11.10;60.20
46754;DHT22;32500;50.620;3.400;2023-02-28T05:26:15;11.10;60.30
46754;DHT22;32500;50.620;3.400;2023-02-28T05:28:41;11.10;60.20
46754;DHT22;32500;50.620;3.400;2023-02-28T05:31:09;11.20;60.30
46754;DHT22;32500;50.620;3.400;2023-02-28T05:33:36;11.10;60.20
46754;DHT22;32500;50.620;3.400;2023-02-28T05:36:01;11.10;60.20
46754;DHT22;32500;50.620;3.400;2023-02-28T05:38:27;11.10;60.00
46754;DHT22;32500;50.620;3.400;2023-02-28T05:40:53;11.10;61.00
46754;DHT22;32500;50.620;3.400;2023-02-28T05:43:18;11.20;60.10
46754;DHT22;32500;50.620;3.400;2023-02-28T05:45:44;11.20;60.10
46754;DHT22;32500;50.620;3.400;2023-02-28T05:48:10;11.20;60.00
46754;DHT22;32500;50.620;3.400;2023-02-28T05:50:35;11.20;60.00
46754;DHT22;32500;50.620;3.400;2023-02-28T05:53:01;11.20;59.90
46754;DHT22;32500;50.620;3.400;2023-02-28T05:55:27;11.30;59.80
46754;DHT22;32500;50.620;3.400;2023-02-28T05:57:53;11.20;59.80
46754;DHT22;32500;50.620;3.400;2023-02-28T06:00:19;11.20;60.00
46754;DHT22;32500;50.620;3.400;2023-02-28T06:02:44;11.30;59.90
46754;DHT22;32500;50.620;3.400;2023-02-28T06:05:15;11.30;59.70
46754;DHT22;32500;50.620;3.400;2023-02-28T06:07:41;11.50;59.50
46754;DHT22;32500;50.620;3.400;2023-02-28T06:10:09;11.70;58.80
46754;DHT22;32500;50.620;3.400;2023-02-28T06:12:35;11.90;58.30
46754;DHT22;32500;50.620;3.400;2023-02-28T06:15:00;12.00;58.20
46754;DHT22;32500;50.620;3.400;2023-02-28T06:17:26;12.00;57.90
46754;DHT22;32500;50.620;3.400;2023-02-28T06:19:52;12.20;57.70
46754;DHT22;32500;50.620;3.400;2023-02-28T06:22:17;12.20;57.60
46754;DHT22;32500;50.620;3.400;2023-02-28T06:24:43;12.20;57.50
46754;DHT22;32500;50.620;3.400;2023-02-28T06:27:08;12.30;57.40
46754;DHT22;32500;50.620;3.400;2023-02-28T06:29:35;12.20;57.50
46754;DHT22;32500;50.620;3.400;2023-02-28T06:32:01;12.20;57.60
46754;DHT22;32500;50.620;3.400;2023-02-28T06:34:27;12.20;57.40
46754;DHT22;32500;50.620;3.400;2023-02-28T06:36:53;12.30;57.50
46754;DHT22;32500;50.620;3.400;2023-02-28T06:39:19;12.20;57.40
46754;DHT22;32500;50.620;3.400;2023-02-28T06:41:45;12.20;57.40
46754;DHT22;32500;50.620;3.400;2023-02-28T06:44:15;12.30;57.50
46754;DHT22;32500;50.620;3.400;2023-02-28T06:46:43;12.20;57.50
46754;DHT22;32500;50.620;3.400;2023-02-28T06:49:09;12.20;57.40
46754;DHT22;32500;50.620;3.400;2023-02-28T06:51:37;12.20;57.60
46754;DHT22;32500;50.620;3.400;2023-02-28T06:54:04;12.20;57.50
46754;DHT22;32500;50.620;3.400;2023-02-28T06:56:29;12.10;57.60
46754;DHT22;32500;50.620;3.400;2023-02-28T06:58:55;12.20;57.50
46754;DHT22;32500;50.620;3.400;2023-02-28T07:01:21;12.10;57.60
46754;DHT22;32500;50.620;3.400;2023-02-28T07:03:50;12.10;57.70
46754;DHT22;32500;50.620;3.400;2023-02-28T07:06:19;12.00;57.80
46754;DHT22;32500;50.620;3.400;2023-02-28T07:08:44;12.00;57.70
46754;DHT22;32500;50.620;3.400;2023-02-28T07:11:10;12.00;58.00
46754;DHT22;32500;50.620;3.400;2023-02-28T07:13:36;12.00;58.20
46754;DHT22;32500;50.620;3.400;2023-02-28T07:16:04;12.00;58.00
46754;DHT22;32500;50.620;3.400;2023-02-28T07:18:31;12.00;57.60
46754;DHT22;32500;50.620;3.400;2023-02-28T07:20:57;12.00;58.00
46754;DHT22;32500;50.620;3.400;2023-02-28T07:23:23;11.90;57.80
46754;DHT22;32500;50.620;3.400;2023-02-28T07:25:50;11.90;58.10
46754;DHT22;32500;50.620;3.400;2023-02-28T07:28:16;11.80;58.30
46754;DHT22;32500;50.620;3.400;2023-02-28T07:30:42;11.80;58.40
46754;DHT22;32500;50.620;3.400;2023-02-28T07:33:08;11.80;58.50
46754;DHT22;32500;50.620;3.400;2023-02-28T07:35:34;11.70;58.60
46754;DHT22;32500;50.620;3.400;2023-02-28T07:38:00;11.80;58.60
46754;DHT22;32500;50.620;3.400;2023-02-28T07:40:26;11.80;58.50
46754;DHT22;32500;50.620;3.400;2023-02-28T07:42:52;11.90;58.30
46754;DHT22;32500;50.620;3.400;2023-02-28T07:45:17;12.00;57.90
46754;DHT22;32500;50.620;3.400;2023-02-28T07:47:43;12.10;57.90
46754;DHT22;32500;50.620;3.400;2023-02-28T07:50:11;12.10;57.70
46754;DHT22;32500;50.620;3.400;2023-02-28T07:52:38;12.10;57.60
46754;DHT22;32500;50.620;3.400;2023-02-28T07:55:05;12.10;58.30
46754;DHT22;32500;50.620;3.400;2023-02-28T07:57:31;12.10;57.60
46754;DHT22;32500;50.620;3.400;2023-02-28T07:59:57;12.10;57.70
46754;DHT22;32500;50.620;3.400;2023-02-28T08:02:23;12.10;57.70
46754;DHT22;32500;50.620;3.400;2023-02-28T08:04:48;12.20;57.70
46754;DHT22;32500;50.620;3.400;2023-02-28T08:07:15;12.20;57.60
46754;DHT22;32500;50.620;3.400;2023-02-28T08:09:42;12.20;57.40
46754;DHT22;32500;50.620;3.400;2023-02-28T08:12:09;12.20;57.60
46754;DHT22;32500;50.620;3.400;2023-02-28T08:14:35;12.20;57.60
46754;DHT22;32500;50.620;3.400;2023-02-28T08:17:00;12.10;57.50
46754;DHT22;32500;50.620;3.400;2023-02-28T08:19:26;12.20;57.60
46754;DHT22;32500;50.620;3.400;2023-02-28T08:21:52;12.10;57.60
46754;DHT22;32500;50.620;3.400;2023-02-28T08:24:18;12.10;57.60
46754;DHT22;32500;50.620;3.400;2023-02-28T08:26:43;12.10;57.50
46754;DHT22;32500;50.620;3.400;2023-02-28T08:29:09;12.20;57.30
46754;DHT22;32500;50.620;3.400;2023-02-28T08:31:35;12.20;57.40
46754;DHT22;32500;50.620;3.400;2023-02-28T08:34:09;12.30;57.50
46754;DHT22;32500;50.620;3.400;2023-02-28T08:36:36;12.30;57.30
46754;DHT22;32500;50.620;3.400;2023-02-28T08:39:01;12.40;57.20
46754;DHT22;32500;50.620;3.400;2023-02-28T08:41:28;12.40;57.20
46754;DHT22;32500;50.620;3.400;2023-02-28T08:43:53;12.50;56.70
46754;DHT22;32500;50.620;3.400;2023-02-28T08:46:20;12.60;56.40
46754;DHT22;32500;50.620;3.400;2023-02-28T08:48:45;12.60;56.60
46754;DHT22;32500;50.620;3.400;2023-02-28T08:51:15;12.60;56.70
46754;DHT22;32500;50.620;3.400;2023-02-28T08:53:44;12.60;56.50
46754;DHT22;32500;50.620;3.400;2023-02-28T08:56:12;12.70;56.40
46754;DHT22;32500;50.620;3.400;2023-02-28T08:58:39;12.90;56.10
46754;DHT22;32500;50.620;3.400;2023-02-28T09:01:13;13.00;55.70
46754;DHT22;32500;50.620;3.400;2023-02-28T09:03:40;13.10;55.50
46754;DHT22;32500;50.620;3.400;2023-02-28T09:06:09;13.10;55.30
46754;DHT22;32500;50.620;3.400;2023-02-28T09:08:35;12.90;55.70
46754;DHT22;32500;50.620;3.400;2023-02-28T09:11:01;12.90;56.00
46754;DHT22;32500;50.620;3.400;2023-02-28T09:13:28;12.80;56.20
46754;DHT22;32500;50.620;3.400;2023-02-28T09:15:55;12.80;56.10
46754;DHT22;32500;50.620;3.400;2023-02-28T09:18:22;12.70;56.30
46754;DHT22;32500;50.620;3.400;2023-02-28T09:20:48;12.70;56.50
46754;DHT22;32500;50.620;3.400;2023-02-28T09:23:13;12.60;56.70
46754;DHT22;32500;50.620;3.400;2023-02-28T09:25:52;12.70;56.80
46754;DHT22;32500;50.620;3.400;2023-02-28T09:28:19;12.70;56.70
46754;DHT22;32500;50.620;3.400;2023-02-28T09:30:47;12.60;56.80
46754;DHT22;32500;50.620;3.400;2023-02-28T09:33:13;12.90;56.40
46754;DHT22;32500;50.620;3.400;2023-02-28T09:35:39;12.90;56.20
46754;DHT22;32500;50.620;3.400;2023-02-28T09:38:05;12.80;56.40
46754;DHT22;32500;50.620;3.400;2023-02-28T09:40:52;12.80;56.30
46754;DHT22;32500;50.620;3.400;2023-02-28T09:43:21;12.80;56.30
46754;DHT22;32500;50.620;3.400;2023-02-28T09:46:03;12.90;56.30
46754;DHT22;32500;50.620;3.400;2023-02-28T09:48:41;13.10;55.80
46754;DHT22;32500;50.620;3.400;2023-02-28T09:54:03;13.10;55.40
46754;DHT22;32500;50.620;3.400;2023-02-28T09:56:36;13.20;55.40
46754;DHT22;32500;50.620;3.400;2023-02-28T10:04:34;13.30;55.50
46754;DHT22;32500;50.620;3.400;2023-02-28T10:07:10;13.30;55.20
46754;DHT22;32500;50.620;3.400;2023-02-28T10:09:42;13.40;55.10
46754;DHT22;32500;50.620;3.400;2023-02-28T10:12:11;13.60;54.90
46754;DHT22;32500;50.620;3.400;2023-02-28T10:14:40;13.60;54.80
46754;DHT22;32500;50.620;3.400;2023-02-28T10:17:23;13.60;54.80
46754;DHT22;32500;50.620;3.400;2023-02-28T10:20:00;13.60;54.60
46754;DHT22;32500;50.620;3.400;2023-02-28T10:22:58;13.70;54.50
46754;DHT22;32500;50.620;3.400;2023-02-28T10:25:28;13.70;54.40
46754;DHT22;32500;50.620;3.400;2023-02-28T10:28:01;13.70;54.40
46754;DHT22;32500;50.620;3.400;2023-02-28T10:30:27;13.70;54.50
46754;DHT22;32500;50.620;3.400;2023-02-28T10:32:53;13.80;54.30
46754;DHT22;32500;50.620;3.400;2023-02-28T10:35:24;13.80;54.40
46754;DHT22;32500;50.620;3.400;2023-02-28T10:37:54;13.80;54.30
46754;DHT22;32500;50.620;3.400;2023-02-28T10:45:26;13.80;54.00
46754;DHT22;32500;50.620;3.400;2023-02-28T10:51:11;13.80;54.20
46754;DHT22;32500;50.620;3.400;2023-02-28T11:01:35;13.80;54.10
46754;DHT22;32500;50.620;3.400;2023-02-28T11:04:03;13.80;54.20
46754;DHT22;32500;50.620;3.400;2023-02-28T11:06:31;13.90;53.90
46754;DHT22;32500;50.620;3.400;2023-02-28T11:09:03;13.80;54.20
46754;DHT22;32500;50.620;3.400;2023-02-28T11:11:31;13.80;54.00
46754;DHT22;32500;50.620;3.400;2023-02-28T11:14:22;13.80;54.10
46754;DHT22;32500;50.620;3.400;2023-02-28T11:16:49;13.70;54.10
46754;DHT22;32500;50.620;3.400;2023-02-28T11:19:20;13.70;54.40
46754;DHT22;32500;50.620;3.400;2023-02-28T11:21:55;13.70;54.40
46754;DHT22;32500;50.620;3.400;2023-02-28T11:24:26;13.60;54.30
46754;DHT22;32500;50.620;3.400;2023-02-28T11:26:52;13.60;54.70
46754;DHT22;32500;50.620;3.400;2023-02-28T11:34:29;13.60;54.80
46754;DHT22;32500;50.620;3.400;2023-02-28T11:36:57;13.60;54.70
46754;DHT22;32500;50.620;3.400;2023-02-28T11:39:24;13.60;54.70
46754;DHT22;32500;50.620;3.400;2023-02-28T11:45:33;13.50;55.00
46754;DHT22;32500;50.620;3.400;2023-02-28T11:48:26;13.50;55.00
46754;DHT22;32500;50.620;3.400;2023-02-28T11:56:19;13.50;55.20
46754;DHT22;32500;50.620;3.400;2023-02-28T12:13:32;13.50;54.90
46754;DHT22;32500;50.620;3.400;2023-02-28T12:16:23;13.50;55.10
46754;DHT22;32500;50.620;3.400;2023-02-28T12:27:14;13.50;55.20
46754;DHT22;32500;50.620;3.400;2023-02-28T12:30:04;13.50;55.00
46754;DHT22;32500;50.620;3.400;2023-02-28T12:32:40;13.50;55.20
46754;DHT22;32500;50.620;3.400;2023-02-28T12:35:13;13.50;55.20
46754;DHT22;32500;50.620;3.400;2023-02-28T12:40:27;13.60;55.00
46754;DHT22;32500;50.620;3.400;2023-02-28T12:42:59;13.60;55.00
46754;DHT22;32500;50.620;3.400;2023-02-28T12:48:12;13.60;55.20
46754;DHT22;32500;50.620;3.400;2023-02-28T12:50:40;13.70;55.10
46754;DHT22;32500;50.620;3.400;2023-02-28T12:55:56;13.70;54.70
46754;DHT22;32500;50.620;3.400;2023-02-28T13:07:04;13.80;54.60
46754;DHT22;32500;50.620;3.400;2023-02-28T13:09:33;13.80;54.60
46754;DHT22;32500;50.620;3.400;2023-02-28T13:11:59;13.90;54.70
46754;DHT22;32500;50.620;3.400;2023-02-28T13:14:28;13.80;54.60
46754;DHT22;32500;50.620;3.400;2023-02-28T13:25:49;13.80;54.60
46754;DHT22;32500;50.620;3.400;2023-02-28T13:27:53;13.80;54.70
46754;DHT22;32500;50.620;3.400;2023-02-28T13:38:51;13.80;54.30
46754;DHT22;32500;50.620;3.400;2023-02-28T13:41:43;13.90;54.40
46754;DHT22;32500;50.620;3.400;2023-02-28T13:44:13;13.80;54.50
46754;DHT22;32500;50.620;3.400;2023-02-28T13:51:53;13.90;54.30
46754;DHT22;32500;50.620;3.400;2023-02-28T13:54:29;13.90;54.30
46754;DHT22;32500;50.620;3.400;2023-02-28T13:59:33;13.80;54.30
46754;DHT22;32500;50.620;3.400;2023-02-28T14:05:00;13.80;54.50
46754;DHT22;32500;50.620;3.400;2023-02-28T14:07:30;13.90;54.40
46754;DHT22;32500;50.620;3.400;2023-02-28T14:10:06;13.80;54.30
46754;DHT22;32500;50.620;3.400;2023-02-28T14:15:46;13.80;54.30
46754;DHT22;32500;50.620;3.400;2023-02-28T14:18:37;13.90;54.20
46754;DHT22;32500;50.620;3.400;2023-02-28T14:21:35;13.90;54.20
46754;DHT22;32500;50.620;3.400;2023-02-28T14:24:22;13.90;54.30
46754;DHT22;32500;50.620;3.400;2023-02-28T14:37:27;14.00;53.80
46754;DHT22;32500;50.620;3.400;2023-02-28T14:39:54;14.00;53.80
46754;DHT22;32500;50.620;3.400;2023-02-28T14:42:39;13.90;54.00
46754;DHT22;32500;50.620;3.400;2023-02-28T14:45:19;13.80;54.20
46754;DHT22;32500;50.620;3.400;2023-02-28T14:47:46;13.80;54.50
46754;DHT22;32500;50.620;3.400;2023-02-28T14:50:30;13.80;54.30
46754;DHT22;32500;50.620;3.400;2023-02-28T14:52:56;13.90;54.20
46754;DHT22;32500;50.620;3.400;2023-02-28T14:55:43;13.90;54.20
46754;DHT22;32500;50.620;3.400;2023-02-28T14:58:31;13.90;53.90
46754;DHT22;32500;50.620;3.400;2023-02-28T15:01:02;13.90;54.10
46754;DHT22;32500;50.620;3.400;2023-02-28T15:03:39;13.90;53.90
46754;DHT22;32500;50.620;3.400;2023-02-28T15:06:12;13.90;53.90
46754;DHT22;32500;50.620;3.400;2023-02-28T15:08:39;13.90;54.00
46754;DHT22;32500;50.620;3.400;2023-02-28T15:11:16;14.00;53.80
46754;DHT22;32500;50.620;3.400;2023-02-28T15:13:50;13.90;54.00
46754;DHT22;32500;50.620;3.400;2023-02-28T15:21:48;13.90;54.10
46754;DHT22;32500;50.620;3.400;2023-02-28T15:24:41;13.90;54.20
46754;DHT22;32500;50.620;3.400;2023-02-28T15:27:21;13.90;54.30
46754;DHT22;32500;50.620;3.400;2023-02-28T15:29:55;14.00;54.10
46754;DHT22;32500;50.620;3.400;2023-02-28T15:32:30;14.10;53.80
46754;DHT22;32500;50.620;3.400;2023-02-28T15:34:57;14.20;53.70
46754;DHT22;32500;50.620;3.400;2023-02-28T15:37:33;14.30;54.00
46754;DHT22;32500;50.620;3.400;2023-02-28T15:42:40;14.30;53.20
46754;DHT22;32500;50.620;3.400;2023-02-28T15:45:25;14.40;52.90
46754;DHT22;32500;50.620;3.400;2023-02-28T15:47:51;14.50;52.70
46754;DHT22;32500;50.620;3.400;2023-02-28T15:50:17;14.60;52.50
46754;DHT22;32500;50.620;3.400;2023-02-28T15:52:44;14.60;52.70
46754;DHT22;32500;50.620;3.400;2023-02-28T15:55:18;14.60;52.60
46754;DHT22;32500;50.620;3.400;2023-02-28T15:57:45;14.50;52.70
46754;DHT22;32500;50.620;3.400;2023-02-28T16:00:14;14.50;52.90
46754;DHT22;32500;50.620;3.400;2023-02-28T16:02:40;14.40;52.90
46754;DHT22;32500;50.620;3.400;2023-02-28T16:07:33;14.40;52.50
46754;DHT22;32500;50.620;3.400;2023-02-28T16:09:59;14.50;52.40
46754;DHT22;32500;50.620;3.400;2023-02-28T16:12:28;14.40;52.30
46754;DHT22;32500;50.620;3.400;2023-02-28T16:14:57;14.40;52.40
46754;DHT22;32500;50.620;3.400;2023-02-28T16:17:28;14.30;52.70
46754;DHT22;32500;50.620;3.400;2023-02-28T16:19:55;14.40;52.80
46754;DHT22;32500;50.620;3.400;2023-02-28T16:22:21;14.40;53.00
46754;DHT22;32500;50.620;3.400;2023-02-28T16:24:47;14.40;53.10
46754;DHT22;32500;50.620;3.400;2023-02-28T16:27:30;14.30;53.20
46754;DHT22;32500;50.620;3.400;2023-02-28T16:29:56;14.30;53.40
46754;DHT22;32500;50.620;3.400;2023-02-28T16:32:22;14.20;53.40
46754;DHT22;32500;50.620;3.400;2023-02-28T16:34:47;14.20;53.50
46754;DHT22;32500;50.620;3.400;2023-02-28T16:37:15;14.10;53.80
46754;DHT22;32500;50.620;3.400;2023-02-28T16:39:42;14.00;53.90
46754;DHT22;32500;50.620;3.400;2023-02-28T16:42:36;14.00;54.00
46754;DHT22;32500;50.620;3.400;2023-02-28T16:45:03;13.90;54.20
46754;DHT22;32500;50.620;3.400;2023-02-28T16:47:28;13.90;54.40
46754;DHT22;32500;50.620;3.400;2023-02-28T16:49:56;13.80;54.50
46754;DHT22;32500;50.620;3.400;2023-02-28T16:52:22;13.70;54.80
46754;DHT22;32500;50.620;3.400;2023-02-28T16:54:47;13.60;54.90
46754;DHT22;32500;50.620;3.400;2023-02-28T16:57:23;13.40;55.30
46754;DHT22;32500;50.620;3.400;2023-02-28T16:59:49;13.30;55.60
46754;DHT22;32500;50.620;3.400;2023-02-28T17:02:17;13.30;55.70
46754;DHT22;32500;50.620;3.400;2023-02-28T17:04:44;13.20;55.90
46754;DHT22;32500;50.620;3.400;2023-02-28T17:07:15;13.20;56.10
46754;DHT22;32500;50.620;3.400;2023-02-28T17:09:43;13.20;56.20
46754;DHT22;32500;50.620;3.400;2023-02-28T17:12:09;13.10;56.30
46754;DHT22;32500;50.620;3.400;2023-02-28T17:14:36;13.10;56.60
46754;DHT22;32500;50.620;3.400;2023-02-28T17:17:03;13.00;56.50
46754;DHT22;32500;50.620;3.400;2023-02-28T17:19:29;13.00;56.80
46754;DHT22;32500;50.620;3.400;2023-02-28T17:21:55;13.00;56.80
46754;DHT22;32500;50.620;3.400;2023-02-28T17:24:20;12.90;56.70
46754;DHT22;32500;50.620;3.400;2023-02-28T17:26:46;12.80;57.00
46754;DHT22;32500;50.620;3.400;2023-02-28T17:29:19;12.80;57.00
46754;DHT22;32500;50.620;3.400;2023-02-28T17:31:45;12.80;57.20
46754;DHT22;32500;50.620;3.400;2023-02-28T17:34:11;12.70;57.30
46754;DHT22;32500;50.620;3.400;2023-02-28T17:36:37;12.70;57.20
46754;DHT22;32500;50.620;3.400;2023-02-28T17:39:04;12.70;57.40
46754;DHT22;32500;50.620;3.400;2023-02-28T17:41:34;12.70;57.40
46754;DHT22;32500;50.620;3.400;2023-02-28T17:43:59;12.60;57.50
46754;DHT22;32500;50.620;3.400;2023-02-28T17:46:25;12.60;57.50
46754;DHT22;32500;50.620;3.400;2023-02-28T17:48:53;12.60;57.70
46754;DHT22;32500;50.620;3.400;2023-02-28T17:51:20;12.60;57.50
46754;DHT22;32500;50.620;3.400;2023-02-28T17:53:46;12.50;57.70
46754;DHT22;32500;50.620;3.400;2023-02-28T17:56:20;12.60;57.80
46754;DHT22;32500;50.620;3.400;2023-02-28T17:58:46;12.50;57.80
46754;DHT22;32500;50.620;3.400;2023-02-28T18:01:12;12.50;57.80
46754;DHT22;32500;50.620;3.400;2023-02-28T18:03:38;12.50;57.90
46754;DHT22;32500;50.620;3.400;2023-02-28T18:06:04;12.40;58.00
46754;DHT22;32500;50.620;3.400;2023-02-28T18:08:31;12.50;58.10
46754;DHT22;32500;50.620;3.400;2023-02-28T18:10:58;12.40;58.20
46754;DHT22;32500;50.620;3.400;2023-02-28T18:13:24;12.40;58.20
46754;DHT22;32500;50.620;3.400;2023-02-28T18:15:50;12.40;58.20
46754;DHT22;32500;50.620;3.400;2023-02-28T18:18:15;12.30;58.20
46754;DHT22;32500;50.620;3.400;2023-02-28T18:20:41;12.30;58.30
46754;DHT22;32500;50.620;3.400;2023-02-28T18:23:07;12.30;58.30
46754;DHT22;32500;50.620;3.400;2023-02-28T18:25:32;12.30;58.60
46754;DHT22;32500;50.620;3.400;2023-02-28T18:27:58;12.20;58.40